createdAt,value
2018-12-13T00:02:37.941Z,26.77
2018-12-13T00:05:25.439Z,27.20
2018-12-13T00:08:13.142Z,23.50
2018-12-13T00:11:03.490Z,24.60
2018-12-13T00:14:01.375Z,27.27
2018-12-13T00:16:48.474Z,25.87
2018-12-13T00:19:36.369Z,26.90
2018-12-13T00:22:37.030Z,29.30
2018-12-13T00:25:34.508Z,29.03
2018-12-13T00:28:21.564Z,33.30
2018-12-13T00:31:09.099Z,33.43
2018-12-13T00:37:02.650Z,33.67
2018-12-13T00:39:50.002Z,32.50
2018-12-13T00:42:37.552Z,32.37
2018-12-13T00:45:24.698Z,33.33
2018-12-13T00:48:13.025Z,33.37
2018-12-13T00:51:00.707Z,30.63
2018-12-13T00:53:47.622Z,30.83
2018-12-13T00:56:36.858Z,30.87
2018-12-13T00:59:23.819Z,34.23
2018-12-13T01:02:11.119Z,28.37
2018-12-13T01:04:58.110Z,31.30
2018-12-13T01:07:45.512Z,38.03
2018-12-13T01:10:32.934Z,35.23
2018-12-13T01:13:20.057Z,31.10
2018-12-13T01:16:07.233Z,29.57
2018-12-13T01:18:56.824Z,33.07
2018-12-13T01:21:43.799Z,36.00
2018-12-13T01:24:30.776Z,33.40
2018-12-13T01:27:18.182Z,31.57
2018-12-13T01:30:05.471Z,31.40
2018-12-13T01:32:52.426Z,32.13
2018-12-13T01:35:39.594Z,34.50
2018-12-13T01:38:26.755Z,32.47
2018-12-13T01:41:13.603Z,33.07
2018-12-13T01:44:02.499Z,34.15
2018-12-13T01:46:49.781Z,30.83
2018-12-13T01:49:37.506Z,32.37
2018-12-13T01:52:25.152Z,28.37
2018-12-13T01:58:18.927Z,32.87
2018-12-13T02:01:06.185Z,36.23
2018-12-13T02:03:53.283Z,34.70
2018-12-13T02:06:40.556Z,33.37
2018-12-13T02:09:27.667Z,31.97
2018-12-13T02:12:15.050Z,34.30
2018-12-13T02:15:02.167Z,30.27
2018-12-13T02:17:49.198Z,34.10
2018-12-13T02:20:37.318Z,31.63
2018-12-13T02:23:24.708Z,32.70
2018-12-13T02:26:14.282Z,33.23
2018-12-13T02:29:01.291Z,31.53
2018-12-13T02:31:50.248Z,31.60
2018-12-13T02:34:44.935Z,35.97
2018-12-13T02:37:32.271Z,34.47
2018-12-13T02:40:19.852Z,32.77
2018-12-13T02:43:08.055Z,35.80
2018-12-13T02:45:54.874Z,34.63
2018-12-13T02:48:42.496Z,44.85
2018-12-13T03:00:47.403Z,32.70
2018-12-13T03:03:35.640Z,35.57
2018-12-13T03:06:23.601Z,32.97
2018-12-13T03:09:10.499Z,34.80
2018-12-13T03:12:13.854Z,34.50
2018-12-13T03:15:01.142Z,34.50
2018-12-13T03:18:01.016Z,31.43
2018-12-13T03:20:52.064Z,36.17
2018-12-13T03:23:39.186Z,44.58
2018-12-13T03:26:27.056Z,36.37
2018-12-13T03:29:15.342Z,33.20
2018-12-13T03:32:02.645Z,29.30
2018-12-13T03:35:04.906Z,42.20
2018-12-13T03:37:52.423Z,43.77
2018-12-13T03:40:41.120Z,35.37
2018-12-13T03:43:28.239Z,32.77
2018-12-13T03:46:15.900Z,32.53
2018-12-13T03:49:03.723Z,33.33
2018-12-13T03:51:50.496Z,33.53
2018-12-13T03:54:40.051Z,42.85
2018-12-13T03:57:27.416Z,34.43
2018-12-13T04:00:14.553Z,32.17
2018-12-13T04:03:02.693Z,43.80
2018-12-13T04:05:50.019Z,39.97
2018-12-13T04:08:37.373Z,31.77
2018-12-13T04:11:31.919Z,37.57
2018-12-13T04:14:19.731Z,33.87
2018-12-13T04:17:06.747Z,34.07
2018-12-13T04:19:54.721Z,34.33
2018-12-13T04:22:43.301Z,37.30
2018-12-13T04:25:30.300Z,38.80
2018-12-13T04:28:17.218Z,33.87
2018-12-13T04:31:05.221Z,37.40
2018-12-13T04:33:53.003Z,32.93
2018-12-13T04:36:39.936Z,33.00
2018-12-13T04:39:27.628Z,34.77
2018-12-13T04:42:17.378Z,35.97
2018-12-13T04:45:04.273Z,38.67
2018-12-13T04:47:51.366Z,37.83
2018-12-13T04:50:38.542Z,33.50
2018-12-13T04:53:25.666Z,35.13
2018-12-13T04:56:12.912Z,32.43
2018-12-13T04:58:59.933Z,39.70
2018-12-13T05:01:47.475Z,42.20
2018-12-13T05:04:34.731Z,58.17
2018-12-13T05:07:21.602Z,59.13
2018-12-13T05:10:11.797Z,45.80
2018-12-13T05:12:59.338Z,40.83
2018-12-13T05:15:47.298Z,62.88
2018-12-13T05:18:36.524Z,48.70
2018-12-13T05:21:23.561Z,46.43
2018-12-13T05:24:10.889Z,43.63
2018-12-13T05:26:57.939Z,39.60
2018-12-13T05:29:45.611Z,37.53
2018-12-13T05:32:33.297Z,60.58
2018-12-13T05:35:21.268Z,48.07
2018-12-13T05:38:08.487Z,39.60
2018-12-13T05:40:56.178Z,46.30
2018-12-13T05:43:46.094Z,40.80
2018-12-13T05:46:32.872Z,40.50
2018-12-13T05:49:20.073Z,39.37
2018-12-13T05:55:13.352Z,44.50
2018-12-13T05:58:00.576Z,42.73
2018-12-13T06:00:49.490Z,38.20
2018-12-13T06:03:36.631Z,58.90
2018-12-13T06:06:23.850Z,45.53
2018-12-13T06:09:12.379Z,40.90
2018-12-13T06:11:59.242Z,36.67
2018-12-13T06:17:53.615Z,38.53
2018-12-13T06:20:41.122Z,40.93
2018-12-13T06:23:30.084Z,39.80
2018-12-13T06:26:17.093Z,39.47
2018-12-13T06:29:06.885Z,39.60
2018-12-13T06:31:53.790Z,41.37
2018-12-13T06:34:41.245Z,39.43
2018-12-13T06:43:42.099Z,41.87
2018-12-13T06:46:28.802Z,35.37
2018-12-13T06:49:15.831Z,39.13
2018-12-13T06:52:02.679Z,40.13
2018-12-13T06:54:50.070Z,33.13
2018-12-13T06:57:37.157Z,36.63
2018-12-13T07:00:24.698Z,38.17
2018-12-13T07:03:19.695Z,35.83
2018-12-13T07:09:14.128Z,38.33
2018-12-13T07:12:00.892Z,36.37
2018-12-13T07:14:48.336Z,41.37
2018-12-13T07:17:36.350Z,41.90
2018-12-13T07:20:24.100Z,40.70
2018-12-13T07:23:12.862Z,58.27
2018-12-13T07:26:02.261Z,56.10
2018-12-13T07:28:48.903Z,45.20
2018-12-13T07:31:36.223Z,41.57
2018-12-13T07:34:24.570Z,42.57
2018-12-13T07:37:12.649Z,55.22
2018-12-13T07:40:00.082Z,43.30
2018-12-13T07:42:47.622Z,56.03
2018-12-13T07:45:38.995Z,46.17
2018-12-13T07:48:36.750Z,39.77
2018-12-13T07:51:31.650Z,39.70
2018-12-13T07:54:30.609Z,40.70
2018-12-13T07:57:26.309Z,41.23
2018-12-13T08:00:13.425Z,37.83
2018-12-13T08:03:02.438Z,38.87
2018-12-13T08:05:49.922Z,57.30
2018-12-13T08:08:39.642Z,58.50
2018-12-13T08:11:26.594Z,48.63
2018-12-13T08:14:15.164Z,42.07
2018-12-13T08:17:02.626Z,48.63
2018-12-13T08:19:49.804Z,54.33
2018-12-13T08:22:37.180Z,43.53
2018-12-13T08:25:24.747Z,45.20
2018-12-13T08:28:11.698Z,44.30
2018-12-13T08:34:05.564Z,45.10
2018-12-13T08:36:52.770Z,42.80
2018-12-13T08:39:40.123Z,46.60
2018-12-13T08:42:29.190Z,44.27
2018-12-13T08:45:16.453Z,44.73
2018-12-13T08:48:04.278Z,44.50
2018-12-13T08:50:51.832Z,47.60
2018-12-13T08:53:39.030Z,62.58
2018-12-13T08:56:26.420Z,53.73
2018-12-13T08:59:13.562Z,52.00
2018-12-13T09:02:01.421Z,51.27
2018-12-13T09:04:48.406Z,48.57
2018-12-13T09:07:35.593Z,70.70
2018-12-13T09:10:22.754Z,59.00
2018-12-13T09:13:10.175Z,55.77
2018-12-13T09:15:58.548Z,75.87
2018-12-13T09:18:46.374Z,66.27
2018-12-13T09:21:34.047Z,57.00
2018-12-13T09:24:21.907Z,54.40
2018-12-13T09:27:08.866Z,69.13
2018-12-13T09:29:56.337Z,63.67
2018-12-13T09:32:43.815Z,66.07
2018-12-13T09:35:31.674Z,62.57
2018-12-13T09:38:21.069Z,64.60
2018-12-13T09:41:08.866Z,59.27
2018-12-13T09:43:55.937Z,59.10
2018-12-13T09:46:44.144Z,65.00
2018-12-13T09:49:31.324Z,68.00
2018-12-13T09:52:18.907Z,66.97
2018-12-13T09:55:06.063Z,72.97
2018-12-13T09:57:54.716Z,63.07
2018-12-13T10:00:43.373Z,71.67
2018-12-13T10:03:32.482Z,68.73
2018-12-13T10:06:20.899Z,64.90
2018-12-13T10:09:08.109Z,68.20
2018-12-13T10:11:55.265Z,63.53
2018-12-13T10:14:42.926Z,65.20
2018-12-13T10:17:32.741Z,63.53
2018-12-13T10:20:19.519Z,63.00
2018-12-13T10:23:07.454Z,70.10
2018-12-13T10:25:59.564Z,65.10
2018-12-13T10:28:42.861Z,67.20
2018-12-13T10:31:30.245Z,64.37
2018-12-13T10:34:18.242Z,57.80
2018-12-13T10:37:08.959Z,51.13
2018-12-13T10:39:56.976Z,52.43
2018-12-13T10:42:45.194Z,77.80
2018-12-13T10:45:32.945Z,56.80
2018-12-13T10:48:20.916Z,56.70
2018-12-13T10:51:08.659Z,52.13
2018-12-13T10:53:58.010Z,33.87
2018-12-13T10:56:47.864Z,75.43
2018-12-13T10:59:35.785Z,35.00
2018-12-13T11:02:35.856Z,34.30
2018-12-13T11:05:23.391Z,28.97
2018-12-13T11:11:18.211Z,46.20
2018-12-13T11:14:06.006Z,35.13
2018-12-13T11:16:53.234Z,38.93
2018-12-13T11:19:40.964Z,37.50
2018-12-13T11:22:28.286Z,36.97
2018-12-13T11:25:17.012Z,35.13
2018-12-13T11:31:48.388Z,34.77
2018-12-13T11:34:35.944Z,38.93
2018-12-13T11:37:23.572Z,35.50
2018-12-13T11:40:11.839Z,42.53
2018-12-13T11:43:01.176Z,36.30
2018-12-13T11:45:48.667Z,36.77
2018-12-13T11:48:36.050Z,30.13
2018-12-13T11:51:26.047Z,28.63
2018-12-13T11:54:14.469Z,28.70
2018-12-13T11:57:05.675Z,28.17
2018-12-13T11:59:53.662Z,26.80
2018-12-13T12:02:41.045Z,25.17
2018-12-13T12:05:31.664Z,30.50
2018-12-13T12:08:19.094Z,31.20
2018-12-13T12:11:07.085Z,28.50
2018-12-13T12:13:55.487Z,31.53
2018-12-13T12:16:46.865Z,30.10
2018-12-13T12:19:36.570Z,26.47
2018-12-13T12:22:24.621Z,29.00
2018-12-13T12:25:13.834Z,25.57
2018-12-13T12:28:01.073Z,27.13
2018-12-13T12:30:49.248Z,27.00
2018-12-13T12:33:39.247Z,25.40
2018-12-13T12:36:26.675Z,25.37
2018-12-13T12:39:18.490Z,23.63
2018-12-13T12:42:05.178Z,26.00
2018-12-13T12:44:52.234Z,28.47
2018-12-13T12:47:40.558Z,27.97
2018-12-13T12:50:27.753Z,29.67
2018-12-13T12:53:15.816Z,27.73
2018-12-13T12:56:03.473Z,27.07
2018-12-13T12:58:50.658Z,39.40
2018-12-13T13:01:43.527Z,40.10
2018-12-13T13:04:31.618Z,33.67
2018-12-13T13:07:20.433Z,33.20
2018-12-13T13:10:08.339Z,33.27
2018-12-13T13:12:55.491Z,35.43
2018-12-13T13:15:42.839Z,27.90
2018-12-13T13:18:39.000Z,28.80
2018-12-13T13:21:24.721Z,31.97
2018-12-13T13:24:11.730Z,25.63
2018-12-13T13:26:59.948Z,29.30
2018-12-13T13:29:48.793Z,27.37
2018-12-13T13:32:39.248Z,26.80
2018-12-13T13:35:26.708Z,26.27
2018-12-13T13:38:21.310Z,26.13
2018-12-13T13:41:08.531Z,23.80
2018-12-13T13:43:56.129Z,20.83
2018-12-13T13:46:43.890Z,23.13
2018-12-13T13:49:33.816Z,20.87
2018-12-13T13:52:22.037Z,31.00
2018-12-13T13:55:10.679Z,32.50
2018-12-13T13:57:59.113Z,23.13
2018-12-13T14:00:47.018Z,31.60
2018-12-13T14:03:35.795Z,29.00
2018-12-13T14:06:23.458Z,29.10
2018-12-13T14:09:10.691Z,24.23
2018-12-13T14:11:58.012Z,28.80
2018-12-13T14:14:46.481Z,33.45
2018-12-13T14:17:35.248Z,29.80
2018-12-13T14:20:32.219Z,29.10
2018-12-13T14:23:21.031Z,28.00
2018-12-13T14:26:11.442Z,30.63
2018-12-13T14:28:59.229Z,25.20
2018-12-13T14:31:46.578Z,25.83
2018-12-13T14:34:35.159Z,25.63
2018-12-13T14:37:24.161Z,23.27
2018-12-13T14:40:12.160Z,24.80
2018-12-13T14:43:00.561Z,25.08
2018-12-13T14:45:53.529Z,21.63
2018-12-13T14:48:51.369Z,22.20
2018-12-13T14:51:41.963Z,21.07
2018-12-13T14:54:29.085Z,20.10
2018-12-13T14:57:16.018Z,22.03
2018-12-13T15:00:03.247Z,18.00
2018-12-13T15:03:00.245Z,19.27
2018-12-13T15:05:50.373Z,22.50
2018-12-13T15:08:37.714Z,18.77
2018-12-13T15:11:25.343Z,20.30
2018-12-13T15:14:14.237Z,23.35
2018-12-13T15:17:02.770Z,21.10
2018-12-13T15:19:50.686Z,18.93
2018-12-13T15:22:39.205Z,19.90
2018-12-13T15:25:26.701Z,19.23
2018-12-13T15:28:15.174Z,19.50
2018-12-13T15:31:06.305Z,21.20
2018-12-13T15:33:53.029Z,24.10
2018-12-13T15:36:44.224Z,24.48
2018-12-13T15:39:31.505Z,21.23
2018-12-13T15:42:18.842Z,23.90
2018-12-13T15:45:06.041Z,30.37
2018-12-13T15:47:53.184Z,21.37
2018-12-13T15:50:40.728Z,22.00
2018-12-13T15:53:39.144Z,25.63
2018-12-13T15:56:31.674Z,21.20
2018-12-13T15:59:21.558Z,22.33
2018-12-13T16:02:08.383Z,20.93
2018-12-13T16:04:56.855Z,23.30
2018-12-13T16:07:44.004Z,22.10
2018-12-13T16:10:32.547Z,24.53
2018-12-13T16:13:19.526Z,21.07
2018-12-13T16:16:06.911Z,22.80
2018-12-13T16:18:53.867Z,24.03
2018-12-13T16:21:41.177Z,21.53
2018-12-13T16:24:28.936Z,27.63
2018-12-13T16:27:19.396Z,25.63
2018-12-13T16:30:06.867Z,25.17
2018-12-13T16:32:54.413Z,24.17
2018-12-13T16:35:43.784Z,22.27
2018-12-13T16:38:31.519Z,23.07
2018-12-13T16:41:19.439Z,24.53
2018-12-13T16:44:06.681Z,25.07
2018-12-13T16:46:53.744Z,24.93
2018-12-13T16:49:42.986Z,26.43
2018-12-13T16:52:32.533Z,28.50
2018-12-13T16:55:26.184Z,24.20
2018-12-13T16:58:23.008Z,23.37
2018-12-13T17:01:23.966Z,24.03
2018-12-13T17:04:12.694Z,24.00
2018-12-13T17:07:00.032Z,24.20
2018-12-13T17:09:48.350Z,24.23
2018-12-13T17:12:41.816Z,22.57
2018-12-13T17:15:33.989Z,26.23
2018-12-13T17:18:24.010Z,27.37
2018-12-13T17:21:12.699Z,25.13
2018-12-13T17:24:20.367Z,25.43
2018-12-13T17:27:21.840Z,27.07
2018-12-13T17:30:11.044Z,29.20
2018-12-13T17:32:59.749Z,26.43
2018-12-13T17:35:52.100Z,30.00
2018-12-13T17:38:59.687Z,34.08
2018-12-13T17:41:48.360Z,29.30
2018-12-13T17:44:35.996Z,27.10
2018-12-13T17:47:25.492Z,26.87
2018-12-13T17:50:19.897Z,31.70
2018-12-13T17:53:07.380Z,29.23
2018-12-13T17:55:57.167Z,31.10
2018-12-13T17:58:45.092Z,30.37
2018-12-13T18:01:34.195Z,28.10
2018-12-13T18:04:21.605Z,29.23
2018-12-13T18:07:12.527Z,31.53
2018-12-13T18:09:59.649Z,28.70
2018-12-13T18:12:49.681Z,33.17
2018-12-13T18:15:38.377Z,31.20
2018-12-13T18:18:26.272Z,34.43
2018-12-13T18:21:14.423Z,35.17
2018-12-13T18:24:04.228Z,35.87
2018-12-13T18:26:51.225Z,40.97
2018-12-13T18:29:38.516Z,34.70
2018-12-13T18:32:26.090Z,31.97
2018-12-13T18:35:13.971Z,33.83
2018-12-13T18:41:07.340Z,40.60
2018-12-13T18:43:54.682Z,36.30
2018-12-13T18:49:52.798Z,38.80
2018-12-13T18:55:48.049Z,40.33
2018-12-13T18:58:44.224Z,43.43
2018-12-13T19:01:37.580Z,40.13
2018-12-13T19:04:26.277Z,41.03
2018-12-13T19:07:14.028Z,33.40
2018-12-13T19:10:04.781Z,32.47
2018-12-13T19:12:52.481Z,41.47
2018-12-13T19:15:54.723Z,39.90
2018-12-13T19:18:45.211Z,38.73
2018-12-13T19:21:35.371Z,35.17
2018-12-13T19:24:22.700Z,34.47
2018-12-13T19:27:10.484Z,39.93
2018-12-13T19:29:59.583Z,36.70
2018-12-13T19:32:49.597Z,40.53
2018-12-13T19:35:36.691Z,36.30
2018-12-13T19:38:24.315Z,42.20
2018-12-13T19:41:19.557Z,35.87
2018-12-13T19:44:08.501Z,36.87
2018-12-13T19:46:58.229Z,39.20
2018-12-13T19:49:53.998Z,41.10
2018-12-13T19:52:41.442Z,35.07
2018-12-13T19:58:49.340Z,38.10
2018-12-13T20:01:39.213Z,35.23
2018-12-13T20:04:30.343Z,36.73
2018-12-13T20:07:20.583Z,38.43
2018-12-13T20:10:11.910Z,38.23
2018-12-13T20:13:06.484Z,37.90
2018-12-13T20:15:55.757Z,41.47
2018-12-13T20:18:46.750Z,33.20
2018-12-13T20:21:38.826Z,34.70
2018-12-13T20:24:27.843Z,36.53
2018-12-13T20:27:22.457Z,32.53
2018-12-13T20:30:10.730Z,37.87
2018-12-13T20:33:01.339Z,42.55
2018-12-13T20:35:51.938Z,32.00
2018-12-13T20:38:39.865Z,32.07
2018-12-13T20:41:30.402Z,30.53
2018-12-13T20:44:21.019Z,32.00
2018-12-13T20:47:09.015Z,34.10
2018-12-13T20:49:56.487Z,34.13
2018-12-13T20:52:43.513Z,33.87
2018-12-13T20:55:37.427Z,33.77
2018-12-13T20:58:24.883Z,37.80
2018-12-13T21:01:12.366Z,32.17
2018-12-13T21:03:59.985Z,25.93
2018-12-13T21:06:48.163Z,28.17
2018-12-13T21:09:40.619Z,29.97
2018-12-13T21:12:28.252Z,30.30
2018-12-13T21:15:17.299Z,26.00
2018-12-13T21:18:05.597Z,28.90
2018-12-13T21:20:53.373Z,30.03
2018-12-13T21:26:47.591Z,38.00
2018-12-13T21:29:34.798Z,33.17
2018-12-13T21:32:21.953Z,28.57
2018-12-13T21:35:09.722Z,32.27
2018-12-13T21:38:02.853Z,26.17
2018-12-13T21:41:02.514Z,32.67
2018-12-13T21:43:58.297Z,28.43
2018-12-13T21:46:49.267Z,30.70
2018-12-13T21:49:36.658Z,29.37
2018-12-13T21:52:24.283Z,33.37
2018-12-13T21:55:14.494Z,32.37
2018-12-13T21:58:01.967Z,41.15
2018-12-13T22:00:49.435Z,35.07
2018-12-13T22:03:39.359Z,36.77
2018-12-13T22:06:27.671Z,39.50
2018-12-13T22:09:16.170Z,37.43
2018-12-13T22:12:05.640Z,38.50
2018-12-13T22:14:52.640Z,35.60
2018-12-13T22:17:40.851Z,34.53
2018-12-13T22:20:30.513Z,34.23
2018-12-13T22:23:18.488Z,34.60
2018-12-13T22:26:10.829Z,35.77
2018-12-13T22:28:58.254Z,32.97
2018-12-13T22:31:46.964Z,33.43
2018-12-13T22:34:38.699Z,36.30
2018-12-13T22:37:26.445Z,37.53
2018-12-13T22:40:17.164Z,43.38
2018-12-13T22:43:05.381Z,38.13
2018-12-13T22:46:11.723Z,34.17
2018-12-13T22:52:11.002Z,35.57
2018-12-13T22:55:00.431Z,35.77
2018-12-13T22:57:52.673Z,43.15
2018-12-13T23:00:47.948Z,38.27
2018-12-13T23:03:35.262Z,37.00
2018-12-13T23:06:23.549Z,41.10
2018-12-13T23:09:12.288Z,30.77
2018-12-13T23:12:04.233Z,32.40
2018-12-13T23:14:53.557Z,35.87
2018-12-13T23:17:41.347Z,34.13
2018-12-13T23:20:29.274Z,33.90
2018-12-13T23:23:19.681Z,30.00
2018-12-13T23:26:08.652Z,33.50
2018-12-13T23:28:59.022Z,34.10
2018-12-13T23:31:46.809Z,43.45
2018-12-13T23:34:34.182Z,38.43
2018-12-13T23:37:22.469Z,34.77
2018-12-13T23:40:10.059Z,35.13
2018-12-13T23:42:57.566Z,33.90
2018-12-13T23:45:44.627Z,33.63
2018-12-13T23:48:32.336Z,34.80
2018-12-13T23:51:19.847Z,35.13
2018-12-13T23:54:07.874Z,37.47
2018-12-13T23:56:55.369Z,34.20
2018-12-13T23:59:42.623Z,30.70
